sensor_id;sensor_type;location;lat;lon;timestamp;pressure;altitude;pressure_sealevel;temperature;humidity
58753;BME280;44525;46.052;13.610;2022-12-15T00:00:52;99564.81;;;2.46;73.92
58753;BME280;44525;46.052;13.610;2022-12-15T00:03:36;99568.84;;;2.49;73.51
58753;BME280;44525;46.052;13.610;2022-12-15T00:06:20;99574.41;;;2.15;74.81
58753;BME280;44525;46.052;13.610;2022-12-15T00:09:04;99579.03;;;1.75;76.79
58753;BME280;44525;46.052;13.610;2022-12-15T00:11:47;99582.78;;;1.74;77.11
58753;BME280;44525;46.052;13.610;2022-12-15T00:14:31;99583.66;;;1.80;77.31
58753;BME280;44525;46.052;13.610;2022-12-15T00:17:15;99595.31;;;1.91;76.58
58753;BME280;44525;46.052;13.610;2022-12-15T00:19:59;99600.84;;;1.84;76.81
58753;BME280;44525;46.052;13.610;2022-12-15T00:22:43;99592.72;;;2.23;75.47
58753;BME280;44525;46.052;13.610;2022-12-15T00:25:27;99594.47;;;1.90;76.61
58753;BME280;44525;46.052;13.610;2022-12-15T00:28:11;99599.28;;;2.10;76.66
58753;BME280;44525;46.052;13.610;2022-12-15T00:30:57;99605.63;;;2.26;75.94
58753;BME280;44525;46.052;13.610;2022-12-15T00:33:41;99606.59;;;2.42;75.60
58753;BME280;44525;46.052;13.610;2022-12-15T00:36:25;99616.34;;;2.04;76.66
58753;BME280;44525;46.052;13.610;2022-12-15T00:39:09;99617.88;;;2.22;75.75
58753;BME280;44525;46.052;13.610;2022-12-15T00:41:35;99618.09;;;1.93;77.06
58753;BME280;44525;46.052;13.610;2022-12-15T00:44:00;99622.50;;;1.83;77.33
58753;BME280;44525;46.052;13.610;2022-12-15T00:46:26;99633.44;;;1.59;78.75
58753;BME280;44525;46.052;13.610;2022-12-15T00:49:10;99637.22;;;1.80;78.17
58753;BME280;44525;46.052;13.610;2022-12-15T00:51:55;99639.28;;;2.17;76.77
58753;BME280;44525;46.052;13.610;2022-12-15T00:54:39;99650.03;;;2.00;77.38
58753;BME280;44525;46.052;13.610;2022-12-15T00:57:23;99655.91;;;1.97;76.80
58753;BME280;44525;46.052;13.610;2022-12-15T01:00:07;99652.47;;;2.02;77.14
58753;BME280;44525;46.052;13.610;2022-12-15T01:02:52;99662.78;;;1.93;77.04
58753;BME280;44525;46.052;13.610;2022-12-15T01:05:36;99665.09;;;1.84;77.62
58753;BME280;44525;46.052;13.610;2022-12-15T01:08:20;99675.16;;;1.77;77.60
58753;BME280;44525;46.052;13.610;2022-12-15T01:11:04;99687.75;;;1.77;78.02
58753;BME280;44525;46.052;13.610;2022-12-15T01:13:47;99689.78;;;1.69;78.06
58753;BME280;44525;46.052;13.610;2022-12-15T01:16:31;99702.56;;;1.84;77.73
58753;BME280;44525;46.052;13.610;2022-12-15T01:19:15;99699.84;;;1.79;78.90
58753;BME280;44525;46.052;13.610;2022-12-15T01:21:59;99705.63;;;1.93;78.26
58753;BME280;44525;46.052;13.610;2022-12-15T01:24:25;99710.41;;;1.69;79.17
58753;BME280;44525;46.052;13.610;2022-12-15T01:26:50;99715.91;;;1.62;79.18
58753;BME280;44525;46.052;13.610;2022-12-15T01:29:16;99724.19;;;1.78;78.86
58753;BME280;44525;46.052;13.610;2022-12-15T01:31:41;99722.53;;;1.93;77.78
58753;BME280;44525;46.052;13.610;2022-12-15T01:34:08;99720.25;;;1.85;78.83
58753;BME280;44525;46.052;13.610;2022-12-15T01:36:38;99722.19;;;1.90;78.84
58753;BME280;44525;46.052;13.610;2022-12-15T01:39:03;99722.38;;;1.83;78.91
58753;BME280;44525;46.052;13.610;2022-12-15T01:41:29;99724.31;;;1.71;79.56
58753;BME280;44525;46.052;13.610;2022-12-15T01:44:23;99724.50;;;1.47;81.03
58753;BME280;44525;46.052;13.610;2022-12-15T01:46:51;99728.88;;;1.70;80.29
58753;BME280;44525;46.052;13.610;2022-12-15T01:51:47;99715.41;;;1.82;79.60
58753;BME280;44525;46.052;13.610;2022-12-15T01:54:27;99713.88;;;1.86;79.04
58753;BME280;44525;46.052;13.610;2022-12-15T01:56:56;99707.56;;;1.98;78.83
58753;BME280;44525;46.052;13.610;2022-12-15T01:59:30;99714.53;;;2.16;77.69
58753;BME280;44525;46.052;13.610;2022-12-15T02:01:57;99723.72;;;2.03;78.25
58753;BME280;44525;46.052;13.610;2022-12-15T02:04:23;99731.56;;;2.09;78.56
58753;BME280;44525;46.052;13.610;2022-12-15T02:06:49;99729.09;;;2.03;78.21
58753;BME280;44525;46.052;13.610;2022-12-15T02:09:16;99731.78;;;1.86;78.26
58753;BME280;44525;46.052;13.610;2022-12-15T02:15:08;99729.88;;;2.03;78.18
58753;BME280;44525;46.052;13.610;2022-12-15T02:20:04;99741.56;;;1.58;80.47
58753;BME280;44525;46.052;13.610;2022-12-15T02:27:55;99747.03;;;2.02;79.30
58753;BME280;44525;46.052;13.610;2022-12-15T02:35:28;99756.78;;;2.31;78.58
58753;BME280;44525;46.052;13.610;2022-12-15T02:37:56;99760.22;;;2.09;77.05
58753;BME280;44525;46.052;13.610;2022-12-15T02:40:21;99755.91;;;2.25;77.42
58753;BME280;44525;46.052;13.610;2022-12-15T02:42:50;99753.97;;;2.20;76.80
58753;BME280;44525;46.052;13.610;2022-12-15T02:45:22;99756.91;;;2.19;76.71
58753;BME280;44525;46.052;13.610;2022-12-15T02:53:19;99753.19;;;2.03;78.58
58753;BME280;44525;46.052;13.610;2022-12-15T02:55:56;99764.53;;;2.10;78.92
58753;BME280;44525;46.052;13.610;2022-12-15T02:58:49;99756.56;;;2.15;78.51
58753;BME280;44525;46.052;13.610;2022-12-15T03:01:39;99744.41;;;2.07;79.13
58753;BME280;44525;46.052;13.610;2022-12-15T03:04:09;99766.13;;;2.28;79.01
58753;BME280;44525;46.052;13.610;2022-12-15T03:06:36;99764.44;;;2.22;79.60
58753;BME280;44525;46.052;13.610;2022-12-15T03:09:02;99772.47;;;2.22;79.04
58753;BME280;44525;46.052;13.610;2022-12-15T03:11:27;99765.06;;;2.29;78.19
58753;BME280;44525;46.052;13.610;2022-12-15T03:13:53;99759.69;;;2.07;78.50
58753;BME280;44525;46.052;13.610;2022-12-15T03:16:19;99748.91;;;1.85;79.75
58753;BME280;44525;46.052;13.610;2022-12-15T03:18:45;99758.63;;;2.30;77.78
58753;BME280;44525;46.052;13.610;2022-12-15T03:21:11;99763.56;;;2.38;77.88
58753;BME280;44525;46.052;13.610;2022-12-15T03:23:36;99766.63;;;2.25;78.21
58753;BME280;44525;46.052;13.610;2022-12-15T03:26:02;99771.34;;;2.01;79.67
58753;BME280;44525;46.052;13.610;2022-12-15T03:28:28;99770.88;;;2.04;78.80
58753;BME280;44525;46.052;13.610;2022-12-15T03:30:53;99782.41;;;2.04;79.73
58753;BME280;44525;46.052;13.610;2022-12-15T03:33:21;99778.47;;;2.12;79.21
58753;BME280;44525;46.052;13.610;2022-12-15T03:35:47;99774.13;;;1.89;79.39
58753;BME280;44525;46.052;13.610;2022-12-15T03:38:12;99775.91;;;2.00;78.44
58753;BME280;44525;46.052;13.610;2022-12-15T03:40:38;99778.81;;;2.16;77.94
58753;BME280;44525;46.052;13.610;2022-12-15T03:43:03;99779.44;;;2.23;78.39
58753;BME280;44525;46.052;13.610;2022-12-15T03:45:29;99780.41;;;2.17;78.87
58753;BME280;44525;46.052;13.610;2022-12-15T03:47:55;99788.41;;;2.12;79.56
58753;BME280;44525;46.052;13.610;2022-12-15T03:50:23;99784.13;;;1.93;79.94
58753;BME280;44525;46.052;13.610;2022-12-15T03:52:53;99794.19;;;2.25;79.93
58753;BME280;44525;46.052;13.610;2022-12-15T03:55:20;99795.84;;;2.26;79.61
58753;BME280;44525;46.052;13.610;2022-12-15T03:57:46;99801.53;;;2.13;78.81
58753;BME280;44525;46.052;13.610;2022-12-15T04:00:12;99809.47;;;2.25;79.02
58753;BME280;44525;46.052;13.610;2022-12-15T04:02:41;99805.53;;;2.50;77.86
58753;BME280;44525;46.052;13.610;2022-12-15T04:05:07;99809.00;;;2.11;79.75
58753;BME280;44525;46.052;13.610;2022-12-15T04:07:33;99818.31;;;2.25;79.56
58753;BME280;44525;46.052;13.610;2022-12-15T04:09:58;99813.41;;;2.00;80.00
58753;BME280;44525;46.052;13.610;2022-12-15T04:12:24;99820.72;;;1.88;80.59
58753;BME280;44525;46.052;13.610;2022-12-15T04:14:49;99819.56;;;1.84;81.18
58753;BME280;44525;46.052;13.610;2022-12-15T04:17:15;99824.09;;;2.17;80.53
58753;BME280;44525;46.052;13.610;2022-12-15T04:19:40;99822.69;;;2.32;79.77
58753;BME280;44525;46.052;13.610;2022-12-15T04:22:25;99825.56;;;2.25;79.62
58753;BME280;44525;46.052;13.610;2022-12-15T04:24:50;99838.94;;;2.25;79.45
58753;BME280;44525;46.052;13.610;2022-12-15T04:27:34;99840.25;;;2.39;78.97
58753;BME280;44525;46.052;13.610;2022-12-15T04:30:18;99843.63;;;2.52;78.21
58753;BME280;44525;46.052;13.610;2022-12-15T04:33:03;99842.28;;;2.32;78.41
58753;BME280;44525;46.052;13.610;2022-12-15T04:35:48;99841.19;;;2.50;78.09
58753;BME280;44525;46.052;13.610;2022-12-15T04:38:33;99846.44;;;2.45;78.29
58753;BME280;44525;46.052;13.610;2022-12-15T04:41:18;99853.91;;;2.60;77.13
58753;BME280;44525;46.052;13.610;2022-12-15T04:44:03;99854.78;;;2.66;77.19
58753;BME280;44525;46.052;13.610;2022-12-15T04:46:48;99871.94;;;2.65;76.83
58753;BME280;44525;46.052;13.610;2022-12-15T04:49:32;99863.06;;;2.64;77.45
58753;BME280;44525;46.052;13.610;2022-12-15T04:52:16;99871.19;;;2.69;76.24
58753;BME280;44525;46.052;13.610;2022-12-15T04:55:00;99869.16;;;2.76;76.90
58753;BME280;44525;46.052;13.610;2022-12-15T04:57:44;99863.06;;;2.64;76.53
58753;BME280;44525;46.052;13.610;2022-12-15T05:00:28;99866.09;;;2.68;77.00
58753;BME280;44525;46.052;13.610;2022-12-15T05:03:12;99856.41;;;2.27;78.59
58753;BME280;44525;46.052;13.610;2022-12-15T05:05:56;99861.09;;;2.37;79.92
58753;BME280;44525;46.052;13.610;2022-12-15T05:08:40;99870.97;;;2.54;79.27
58753;BME280;44525;46.052;13.610;2022-12-15T05:11:24;99865.75;;;2.64;77.82
58753;BME280;44525;46.052;13.610;2022-12-15T05:14:08;99861.44;;;2.41;78.51
58753;BME280;44525;46.052;13.610;2022-12-15T05:16:53;99855.09;;;2.30;78.66
58753;BME280;44525;46.052;13.610;2022-12-15T05:19:37;99863.88;;;2.42;78.46
58753;BME280;44525;46.052;13.610;2022-12-15T05:22:21;99875.38;;;2.60;77.83
58753;BME280;44525;46.052;13.610;2022-12-15T05:25:05;99875.97;;;2.67;78.02
58753;BME280;44525;46.052;13.610;2022-12-15T05:27:49;99869.69;;;2.78;77.00
58753;BME280;44525;46.052;13.610;2022-12-15T05:30:33;99884.91;;;2.73;77.55
58753;BME280;44525;46.052;13.610;2022-12-15T05:33:17;99889.81;;;2.59;77.43
58753;BME280;44525;46.052;13.610;2022-12-15T05:35:42;99886.34;;;2.58;76.85
58753;BME280;44525;46.052;13.610;2022-12-15T05:38:08;99882.34;;;2.61;76.89
58753;BME280;44525;46.052;13.610;2022-12-15T05:40:33;99889.56;;;2.60;76.68
58753;BME280;44525;46.052;13.610;2022-12-15T05:42:59;99889.78;;;2.37;78.12
58753;BME280;44525;46.052;13.610;2022-12-15T05:45:25;99890.25;;;2.34;78.56
58753;BME280;44525;46.052;13.610;2022-12-15T05:47:54;99895.13;;;2.37;79.69
58753;BME280;44525;46.052;13.610;2022-12-15T05:50:21;99883.31;;;2.55;78.12
58753;BME280;44525;46.052;13.610;2022-12-15T05:52:47;99883.56;;;2.70;77.39
58753;BME280;44525;46.052;13.610;2022-12-15T05:55:16;99892.25;;;2.60;77.85
58753;BME280;44525;46.052;13.610;2022-12-15T05:57:42;99902.47;;;2.63;77.64
58753;BME280;44525;46.052;13.610;2022-12-15T06:00:08;99894.09;;;2.77;77.51
58753;BME280;44525;46.052;13.610;2022-12-15T06:02:34;99898.66;;;2.76;77.76
58753;BME280;44525;46.052;13.610;2022-12-15T06:04:59;99896.97;;;2.70;77.49
58753;BME280;44525;46.052;13.610;2022-12-15T06:07:26;99899.31;;;2.67;76.98
58753;BME280;44525;46.052;13.610;2022-12-15T06:09:51;99892.00;;;2.62;77.69
58753;BME280;44525;46.052;13.610;2022-12-15T06:12:17;99899.50;;;2.60;78.17
58753;BME280;44525;46.052;13.610;2022-12-15T06:14:42;99899.06;;;2.68;78.12
58753;BME280;44525;46.052;13.610;2022-12-15T06:17:08;99902.72;;;2.62;77.99
58753;BME280;44525;46.052;13.610;2022-12-15T06:19:34;99911.19;;;2.54;79.19
58753;BME280;44525;46.052;13.610;2022-12-15T06:21:59;99907.38;;;2.50;79.45
58753;BME280;44525;46.052;13.610;2022-12-15T06:24:24;99893.97;;;2.50;78.29
58753;BME280;44525;46.052;13.610;2022-12-15T06:26:50;99895.88;;;2.32;79.51
58753;BME280;44525;46.052;13.610;2022-12-15T06:29:16;99905.91;;;2.42;79.46
58753;BME280;44525;46.052;13.610;2022-12-15T06:31:42;99908.84;;;2.40;79.23
58753;BME280;44525;46.052;13.610;2022-12-15T06:34:11;99901.88;;;2.39;78.98
58753;BME280;44525;46.052;13.610;2022-12-15T06:36:37;99898.06;;;2.74;78.25
58753;BME280;44525;46.052;13.610;2022-12-15T06:39:05;99897.44;;;2.67;77.43
58753;BME280;44525;46.052;13.610;2022-12-15T06:41:32;99892.28;;;2.83;77.51
58753;BME280;44525;46.052;13.610;2022-12-15T06:43:59;99888.81;;;2.82;77.14
58753;BME280;44525;46.052;13.610;2022-12-15T06:46:25;99905.00;;;2.70;77.40
58753;BME280;44525;46.052;13.610;2022-12-15T06:48:52;99905.75;;;2.49;77.26
58753;BME280;44525;46.052;13.610;2022-12-15T06:51:18;99901.34;;;2.59;78.00
58753;BME280;44525;46.052;13.610;2022-12-15T06:53:44;99906.84;;;2.70;77.57
58753;BME280;44525;46.052;13.610;2022-12-15T06:58:50;99921.00;;;2.65;78.34
58753;BME280;44525;46.052;13.610;2022-12-15T07:01:16;99934.31;;;2.77;77.61
58753;BME280;44525;46.052;13.610;2022-12-15T07:03:43;99949.75;;;2.70;76.68
58753;BME280;44525;46.052;13.610;2022-12-15T07:06:10;99954.22;;;2.81;76.55
58753;BME280;44525;46.052;13.610;2022-12-15T07:08:36;99959.66;;;2.69;77.24
58753;BME280;44525;46.052;13.610;2022-12-15T07:11:03;99961.78;;;2.50;78.09
58753;BME280;44525;46.052;13.610;2022-12-15T07:13:29;99965.84;;;2.70;77.82
58753;BME280;44525;46.052;13.610;2022-12-15T07:16:01;99982.16;;;2.85;76.83
58753;BME280;44525;46.052;13.610;2022-12-15T07:18:28;99983.22;;;2.84;75.62
58753;BME280;44525;46.052;13.610;2022-12-15T07:20:55;99970.50;;;2.96;76.64
58753;BME280;44525;46.052;13.610;2022-12-15T07:23:20;99965.03;;;2.69;77.70
58753;BME280;44525;46.052;13.610;2022-12-15T07:25:46;99973.56;;;2.66;78.38
58753;BME280;44525;46.052;13.610;2022-12-15T07:28:11;99969.56;;;2.69;77.87
58753;BME280;44525;46.052;13.610;2022-12-15T07:30:37;99966.94;;;2.91;77.95
58753;BME280;44525;46.052;13.610;2022-12-15T07:33:04;99970.25;;;2.98;77.15
58753;BME280;44525;46.052;13.610;2022-12-15T07:35:30;99976.75;;;3.02;77.06
58753;BME280;44525;46.052;13.610;2022-12-15T07:37:56;99976.09;;;3.12;76.54
58753;BME280;44525;46.052;13.610;2022-12-15T07:40:22;99968.34;;;3.15;75.69
58753;BME280;44525;46.052;13.610;2022-12-15T07:42:47;99983.28;;;3.28;75.91
58753;BME280;44525;46.052;13.610;2022-12-15T07:45:13;99982.75;;;3.26;75.88
58753;BME280;44525;46.052;13.610;2022-12-15T07:47:39;99989.66;;;3.22;75.54
58753;BME280;44525;46.052;13.610;2022-12-15T07:50:05;99987.97;;;3.38;75.69
58753;BME280;44525;46.052;13.610;2022-12-15T07:52:31;99977.25;;;3.38;75.69
58753;BME280;44525;46.052;13.610;2022-12-15T07:54:56;99990.66;;;3.38;75.01
58753;BME280;44525;46.052;13.610;2022-12-15T07:57:22;99994.81;;;3.29;75.26
58753;BME280;44525;46.052;13.610;2022-12-15T07:59:48;100005.56;;;3.29;75.61
58753;BME280;44525;46.052;13.610;2022-12-15T08:02:14;100002.75;;;3.41;75.11
58753;BME280;44525;46.052;13.610;2022-12-15T08:04:39;100015.28;;;3.35;74.83
58753;BME280;44525;46.052;13.610;2022-12-15T08:07:05;100012.38;;;3.14;76.25
58753;BME280;44525;46.052;13.610;2022-12-15T08:09:31;100007.25;;;3.35;75.03
58753;BME280;44525;46.052;13.610;2022-12-15T08:11:57;100010.50;;;2.98;77.64
58753;BME280;44525;46.052;13.610;2022-12-15T08:14:23;100008.53;;;3.10;77.57
58753;BME280;44525;46.052;13.610;2022-12-15T08:16:48;100005.06;;;3.32;76.71
58753;BME280;44525;46.052;13.610;2022-12-15T08:19:15;100004.31;;;3.14;76.80
58753;BME280;44525;46.052;13.610;2022-12-15T08:21:42;100009.50;;;3.21;76.94
58753;BME280;44525;46.052;13.610;2022-12-15T08:24:10;100000.94;;;3.46;74.99
58753;BME280;44525;46.052;13.610;2022-12-15T08:26:37;100006.81;;;3.21;75.32
58753;BME280;44525;46.052;13.610;2022-12-15T08:29:04;100014.25;;;3.36;74.27
58753;BME280;44525;46.052;13.610;2022-12-15T08:31:31;100017.81;;;3.42;74.60
58753;BME280;44525;46.052;13.610;2022-12-15T08:33:58;100025.50;;;3.55;74.29
58753;BME280;44525;46.052;13.610;2022-12-15T08:36:24;100024.69;;;3.55;74.50
58753;BME280;44525;46.052;13.610;2022-12-15T08:38:50;100035.69;;;3.53;74.59
58753;BME280;44525;46.052;13.610;2022-12-15T08:41:33;100034.81;;;3.47;74.76
58753;BME280;44525;46.052;13.610;2022-12-15T08:43:59;100047.72;;;3.50;74.19
58753;BME280;44525;46.052;13.610;2022-12-15T08:46:28;100069.44;;;3.49;74.02
58753;BME280;44525;46.052;13.610;2022-12-15T08:48:54;100085.34;;;3.73;74.12
58753;BME280;44525;46.052;13.610;2022-12-15T08:51:21;100088.94;;;3.61;74.41
58753;BME280;44525;46.052;13.610;2022-12-15T08:53:47;100115.78;;;3.61;74.95
58753;BME280;44525;46.052;13.610;2022-12-15T08:56:15;100120.56;;;3.76;74.69
58753;BME280;44525;46.052;13.610;2022-12-15T08:58:42;100127.53;;;3.55;75.56
58753;BME280;44525;46.052;13.610;2022-12-15T09:01:16;100140.25;;;3.82;75.06
58753;BME280;44525;46.052;13.610;2022-12-15T09:03:42;100140.50;;;3.80;74.78
58753;BME280;44525;46.052;13.610;2022-12-15T09:06:13;100152.19;;;3.91;74.55
58753;BME280;44525;46.052;13.610;2022-12-15T09:08:39;100154.66;;;3.76;74.06
58753;BME280;44525;46.052;13.610;2022-12-15T09:11:05;100164.53;;;3.70;73.87
58753;BME280;44525;46.052;13.610;2022-12-15T09:13:31;100177.09;;;3.86;73.70
58753;BME280;44525;46.052;13.610;2022-12-15T09:16:01;100183.56;;;3.85;73.18
58753;BME280;44525;46.052;13.610;2022-12-15T09:18:27;100190.47;;;3.81;73.18
58753;BME280;44525;46.052;13.610;2022-12-15T19:18:23;99612.06;;;4.24;100.00
58753;BME280;44525;46.052;13.610;2022-12-15T19:21:21;99615.28;;;4.15;100.00
58753;BME280;44525;46.052;13.610;2022-12-15T19:24:06;99617.69;;;4.17;100.00
58753;BME280;44525;46.052;13.610;2022-12-15T19:26:33;99612.84;;;4.14;100.00
58753;BME280;44525;46.052;13.610;2022-12-15T19:28:59;99621.19;;;4.17;100.00
58753;BME280;44525;46.052;13.610;2022-12-15T19:31:24;99618.50;;;4.17;100.00
58753;BME280;44525;46.052;13.610;2022-12-15T19:33:49;99617.94;;;4.10;100.00
58753;BME280;44525;46.052;13.610;2022-12-15T19:36:18;99616.84;;;4.06;100.00
58753;BME280;44525;46.052;13.610;2022-12-15T19:38:45;99619.81;;;4.15;100.00
58753;BME280;44525;46.052;13.610;2022-12-15T19:41:15;99621.13;;;4.07;100.00
58753;BME280;44525;46.052;13.610;2022-12-15T19:43:41;99620.63;;;4.10;100.00
58753;BME280;44525;46.052;13.610;2022-12-15T19:46:11;99618.50;;;4.17;100.00
58753;BME280;44525;46.052;13.610;2022-12-15T19:48:37;99606.16;;;4.16;100.00
58753;BME280;44525;46.052;13.610;2022-12-15T19:51:02;99599.94;;;4.11;100.00
58753;BME280;44525;46.052;13.610;2022-12-15T19:53:28;99587.03;;;4.08;100.00
58753;BME280;44525;46.052;13.610;2022-12-15T19:55:56;99588.09;;;4.07;100.00
58753;BME280;44525;46.052;13.610;2022-12-15T19:58:28;99589.47;;;4.14;100.00
58753;BME280;44525;46.052;13.610;2022-12-15T20:00:59;99576.81;;;4.04;100.00
58753;BME280;44525;46.052;13.610;2022-12-15T20:03:26;99579.78;;;4.13;100.00
58753;BME280;44525;46.052;13.610;2022-12-15T20:05:53;99573.31;;;3.99;100.00
58753;BME280;44525;46.052;13.610;2022-12-15T20:08:22;99572.25;;;4.05;100.00
58753;BME280;44525;46.052;13.610;2022-12-15T20:10:48;99567.97;;;4.14;100.00
58753;BME280;44525;46.052;13.610;2022-12-15T20:13:14;99568.50;;;4.06;100.00
58753;BME280;44525;46.052;13.610;2022-12-15T20:15:39;99565.78;;;4.01;100.00
58753;BME280;44525;46.052;13.610;2022-12-15T20:18:04;99551.81;;;3.99;100.00
58753;BME280;44525;46.052;13.610;2022-12-15T20:20:30;99556.41;;;4.14;100.00
58753;BME280;44525;46.052;13.610;2022-12-15T20:22:59;99549.69;;;4.11;100.00
58753;BME280;44525;46.052;13.610;2022-12-15T20:25:28;99542.97;;;4.14;100.00
58753;BME280;44525;46.052;13.610;2022-12-15T20:27:55;99540.31;;;4.24;100.00
58753;BME280;44525;46.052;13.610;2022-12-15T20:30:23;99528.22;;;4.21;100.00
58753;BME280;44525;46.052;13.610;2022-12-15T20:32:50;99519.63;;;4.19;100.00
58753;BME280;44525;46.052;13.610;2022-12-15T20:35:16;99519.63;;;4.19;100.00
58753;BME280;44525;46.052;13.610;2022-12-15T20:37:42;99519.63;;;4.19;100.00
58753;BME280;44525;46.052;13.610;2022-12-15T20:40:25;99515.31;;;4.24;100.00
58753;BME280;44525;46.052;13.610;2022-12-15T20:42:52;99509.94;;;4.24;100.00
58753;BME280;44525;46.052;13.610;2022-12-15T20:45:21;99513.19;;;4.26;100.00
58753;BME280;44525;46.052;13.610;2022-12-15T20:47:48;99510.50;;;4.26;100.00
58753;BME280;44525;46.052;13.610;2022-12-15T20:50:22;99507.00;;;4.30;100.00
58753;BME280;44525;46.052;13.610;2022-12-15T20:52:47;99513.72;;;4.38;100.00
58753;BME280;44525;46.052;13.610;2022-12-15T20:55:13;99502.44;;;4.46;100.00
58753;BME280;44525;46.052;13.610;2022-12-15T20:57:39;99506.22;;;4.40;100.00
58753;BME280;44525;46.052;13.610;2022-12-15T21:00:06;99505.13;;;4.51;100.00
58753;BME280;44525;46.052;13.610;2022-12-15T21:02:31;99500.28;;;4.43;100.00
58753;BME280;44525;46.052;13.610;2022-12-15T21:04:57;99496.25;;;4.46;100.00
58753;BME280;44525;46.052;13.610;2022-12-15T21:07:22;99499.19;;;4.34;100.00
58753;BME280;44525;46.052;13.610;2022-12-15T21:09:48;99478.22;;;4.26;100.00
58753;BME280;44525;46.052;13.610;2022-12-15T21:12:21;99479.06;;;4.31;100.00
58753;BME280;44525;46.052;13.610;2022-12-15T21:14:48;99467.19;;;4.43;100.00
58753;BME280;44525;46.052;13.610;2022-12-15T21:17:17;99457.53;;;4.47;100.00
58753;BME280;44525;46.052;13.610;2022-12-15T21:19:43;99465.31;;;4.48;100.00
58753;BME280;44525;46.052;13.610;2022-12-15T21:22:21;99446.25;;;4.45;100.00
58753;BME280;44525;46.052;13.610;2022-12-15T21:24:49;99428.22;;;4.61;100.00
58753;BME280;44525;46.052;13.610;2022-12-15T21:27:15;99420.13;;;4.66;100.00
58753;BME280;44525;46.052;13.610;2022-12-15T21:29:42;99398.06;;;4.79;100.00
58753;BME280;44525;46.052;13.610;2022-12-15T21:32:07;99378.94;;;4.81;100.00
58753;BME280;44525;46.052;13.610;2022-12-15T21:34:33;99373.53;;;4.96;100.00
58753;BME280;44525;46.052;13.610;2022-12-15T21:36:59;99365.97;;;4.98;100.00
58753;BME280;44525;46.052;13.610;2022-12-15T21:39:33;99360.56;;;5.03;100.00
58753;BME280;44525;46.052;13.610;2022-12-15T21:42:06;99336.63;;;5.07;100.00
58753;BME280;44525;46.052;13.610;2022-12-15T21:44:32;99338.72;;;5.15;100.00
58753;BME280;44525;46.052;13.610;2022-12-15T21:46:57;99345.97;;;5.20;100.00
58753;BME280;44525;46.052;13.610;2022-12-15T21:49:23;99337.91;;;5.20;100.00
58753;BME280;44525;46.052;13.610;2022-12-15T21:51:55;99325.81;;;5.12;100.00
58753;BME280;44525;46.052;13.610;2022-12-15T21:54:23;99330.69;;;5.10;100.00
58753;BME280;44525;46.052;13.610;2022-12-15T21:56:49;99331.13;;;5.22;100.00
58753;BME280;44525;46.052;13.610;2022-12-15T21:59:17;99318.78;;;5.16;100.00
58753;BME280;44525;46.052;13.610;2022-12-15T22:01:42;99333.03;;;5.27;100.00
58753;BME280;44525;46.052;13.610;2022-12-15T22:06:43;99333.88;;;5.17;100.00
58753;BME280;44525;46.052;13.610;2022-12-15T22:09:09;99344.13;;;5.10;100.00
58753;BME280;44525;46.052;13.610;2022-12-15T22:11:35;99330.72;;;5.05;100.00
58753;BME280;44525;46.052;13.610;2022-12-15T22:14:02;99340.13;;;5.02;100.00
58753;BME280;44525;46.052;13.610;2022-12-15T22:16:27;99312.72;;;4.90;100.00
58753;BME280;44525;46.052;13.610;2022-12-15T22:18:55;99331.78;;;4.99;100.00
58753;BME280;44525;46.052;13.610;2022-12-15T22:21:22;99324.84;;;4.92;100.00
58753;BME280;44525;46.052;13.610;2022-12-15T22:23:48;99329.94;;;4.99;100.00
58753;BME280;44525;46.052;13.610;2022-12-15T22:26:23;99326.97;;;4.96;100.00
58753;BME280;44525;46.052;13.610;2022-12-15T22:28:53;99324.00;;;5.02;100.00
58753;BME280;44525;46.052;13.610;2022-12-15T22:31:19;99320.16;;;5.14;100.00
58753;BME280;44525;46.052;13.610;2022-12-15T22:33:45;99332.25;;;5.16;100.00
58753;BME280;44525;46.052;13.610;2022-12-15T22:36:10;99330.16;;;5.03;100.00
58753;BME280;44525;46.052;13.610;2022-12-15T22:38:35;99318.06;;;5.00;100.00
58753;BME280;44525;46.052;13.610;2022-12-15T22:41:01;99326.97;;;4.96;100.00
58753;BME280;44525;46.052;13.610;2022-12-15T22:43:34;99331.25;;;5.02;100.00
58753;BME280;44525;46.052;13.610;2022-12-15T22:46:00;99313.75;;;5.04;100.00
58753;BME280;44525;46.052;13.610;2022-12-15T22:48:30;99307.25;;;5.10;100.00
58753;BME280;44525;46.052;13.610;2022-12-15T22:50:58;99311.38;;;4.92;100.00
58753;BME280;44525;46.052;13.610;2022-12-15T22:53:25;99303.56;;;4.96;100.00
58753;BME280;44525;46.052;13.610;2022-12-15T22:55:52;99286.59;;;5.01;100.00
58753;BME280;44525;46.052;13.610;2022-12-15T22:58:33;99291.41;;;5.04;100.00
58753;BME280;44525;46.052;13.610;2022-12-15T23:01:00;99291.97;;;5.01;100.00
58753;BME280;44525;46.052;13.610;2022-12-15T23:03:26;99285.16;;;5.14;100.00
58753;BME280;44525;46.052;13.610;2022-12-15T23:05:52;99275.94;;;5.25;100.00
58753;BME280;44525;46.052;13.610;2022-12-15T23:08:18;99278.91;;;5.29;100.00
58753;BME280;44525;46.052;13.610;2022-12-15T23:10:43;99284.22;;;5.39;100.00
58753;BME280;44525;46.052;13.610;2022-12-15T23:13:27;99282.94;;;5.26;100.00
58753;BME280;44525;46.052;13.610;2022-12-15T23:15:52;99278.69;;;5.20;100.00
58753;BME280;44525;46.052;13.610;2022-12-15T23:18:36;99274.09;;;5.20;100.00
58753;BME280;44525;46.052;13.610;2022-12-15T23:21:02;99282.72;;;5.17;100.00
58753;BME280;44525;46.052;13.610;2022-12-15T23:23:27;99267.91;;;5.20;100.00
58753;BME280;44525;46.052;13.610;2022-12-15T23:25:54;99255.47;;;5.29;100.00
58753;BME280;44525;46.052;13.610;2022-12-15T23:28:20;99258.19;;;5.24;100.00
58753;BME280;44525;46.052;13.610;2022-12-15T23:30:49;99260.66;;;5.15;100.00
58753;BME280;44525;46.052;13.610;2022-12-15T23:33:16;99255.28;;;5.15;100.00
58753;BME280;44525;46.052;13.610;2022-12-15T23:35:42;99246.06;;;5.26;100.00
58753;BME280;44525;46.052;13.610;2022-12-15T23:38:07;99242.56;;;5.26;100.00